Arch, New Mexico
Current Conditions -  °F | °C
As of 8:58 AM on Wednesday 26 Nov 2014 (Local Time) from KCVS Reporting Station
Clear Clear  
Wind Chill: 33°   Ceiling: Unl
Heat Index: 40°   Visibility: 10mi
Dew Point: 28°   Wind: 13mph
Humidity: 61%   Direction: 50°NE
Pressure: 30.3"   Gusts: NA
Location:  34.1669°N, 103.266°W
Report Text: KCVS 261558Z AUTO 05011KT 10SM CLR 04/M02 A3030 RMK AO2 SLP252 T00441025 $
Loading
Personal Weather Stations






























Interactive Weather Map New forecast layout! Learn more

10-Day Weather Forecast

Advertisements
Track Severe Weather on mobile